createdAt,value
2022-12-25T00:01:41.183Z,11.17
2022-12-25T00:04:13.213Z,12.30
2022-12-25T00:06:43.994Z,13.87
2022-12-25T00:09:14.699Z,11.67
2022-12-25T00:11:46.500Z,10.20
2022-12-25T00:14:17.344Z,18.03
2022-12-25T00:16:48.215Z,14.47
2022-12-25T00:19:19.145Z,11.57
2022-12-25T00:21:49.967Z,13.13
2022-12-25T00:24:20.890Z,12.10
2022-12-25T00:26:52.665Z,10.97
2022-12-25T00:29:23.402Z,12.87
2022-12-25T00:31:54.102Z,10.10
2022-12-25T00:34:24.766Z,9.63
2022-12-25T00:36:55.497Z,9.67
2022-12-25T00:39:26.177Z,9.37
2022-12-25T00:42:14.313Z,9.27
2022-12-25T00:44:44.982Z,10.53
2022-12-25T00:47:16.007Z,12.23
2022-12-25T00:52:30.633Z,21.13
2022-12-25T00:57:50.090Z,13.20
2022-12-25T01:00:21.539Z,13.10
2022-12-25T01:02:52.387Z,10.30
2022-12-25T01:05:23.239Z,9.47
2022-12-25T01:07:54.002Z,11.20
2022-12-25T01:10:24.837Z,11.47
2022-12-25T01:12:55.484Z,9.33
2022-12-25T01:15:26.177Z,10.43
2022-12-25T01:17:56.841Z,13.97
2022-12-25T01:20:27.558Z,15.03
2022-12-25T01:22:58.224Z,13.87
2022-12-25T01:25:28.842Z,11.97
2022-12-25T01:27:59.677Z,11.40
2022-12-25T01:30:30.513Z,12.07
2022-12-25T01:33:01.203Z,10.20
2022-12-25T01:35:31.771Z,10.60
2022-12-25T01:38:02.411Z,12.40
2022-12-25T01:40:34.977Z,11.23
2022-12-25T01:43:05.574Z,12.00
2022-12-25T01:45:39.298Z,11.73
2022-12-25T01:48:14.401Z,9.57
2022-12-25T01:50:48.419Z,13.17
2022-12-25T01:53:19.425Z,9.93
2022-12-25T01:55:52.574Z,9.77
2022-12-25T01:58:23.576Z,9.03
2022-12-25T02:00:55.829Z,9.87
2022-12-25T02:03:26.699Z,8.70
2022-12-25T02:05:57.979Z,9.33
2022-12-25T02:08:28.964Z,17.57
2022-12-25T02:10:59.862Z,8.63
2022-12-25T02:13:30.701Z,7.67
2022-12-25T02:16:04.789Z,7.10
2022-12-25T02:18:40.774Z,6.27
2022-12-25T02:21:38.250Z,8.03
2022-12-25T02:24:29.954Z,6.40
2022-12-25T02:27:17.691Z,8.43
2022-12-25T02:29:54.304Z,6.63
2022-12-25T02:32:28.191Z,10.10
2022-12-25T02:35:03.287Z,6.23
2022-12-25T02:37:37.772Z,7.53
2022-12-25T02:40:13.248Z,7.37
2022-12-25T02:43:06.024Z,6.97
2022-12-25T02:45:57.915Z,6.33
2022-12-25T02:48:49.447Z,8.60
2022-12-25T02:51:41.687Z,8.77
2022-12-25T02:54:32.638Z,8.40
2022-12-25T02:57:24.235Z,6.57
2022-12-25T03:00:15.303Z,8.57
2022-12-25T03:03:06.331Z,7.23
2022-12-25T03:05:57.884Z,7.70
2022-12-25T03:08:31.467Z,5.60
2022-12-25T03:11:28.345Z,6.40
2022-12-25T03:14:03.537Z,6.77
2022-12-25T03:17:02.363Z,7.07
2022-12-25T03:19:53.113Z,6.07
2022-12-25T03:22:44.688Z,11.70
2022-12-25T03:25:33.203Z,10.57
2022-12-25T03:28:04.344Z,5.77
2022-12-25T03:30:56.186Z,10.33
2022-12-25T03:33:46.066Z,6.87
2022-12-25T03:36:07.047Z,10.37
2022-12-25T03:39:05.075Z,6.23
2022-12-25T03:41:56.616Z,9.03
2022-12-25T03:44:48.644Z,9.13
2022-12-25T03:47:41.321Z,7.80
2022-12-25T03:50:33.479Z,7.00
2022-12-25T03:53:25.089Z,6.67
2022-12-25T03:56:14.624Z,5.97
2022-12-25T03:59:15.403Z,7.80
2022-12-25T04:02:03.281Z,6.63
2022-12-25T04:04:51.688Z,11.57
2022-12-25T04:07:39.740Z,11.47
2022-12-25T04:10:29.821Z,8.73
2022-12-25T04:13:17.859Z,7.17
2022-12-25T04:19:07.259Z,6.00
2022-12-25T04:21:55.380Z,6.83
2022-12-25T04:24:43.448Z,6.70
2022-12-25T04:27:32.115Z,9.17
2022-12-25T04:30:20.355Z,7.23
2022-12-25T04:33:08.352Z,7.73
2022-12-25T04:35:56.519Z,7.83
2022-12-25T04:38:27.149Z,7.30
2022-12-25T04:40:57.822Z,6.77
2022-12-25T04:43:28.974Z,7.77
2022-12-25T04:46:01.494Z,6.20
2022-12-25T04:48:34.827Z,6.20
2022-12-25T04:51:17.263Z,6.10
2022-12-25T04:53:48.991Z,6.40
2022-12-25T04:56:20.729Z,6.50
2022-12-25T04:58:51.805Z,6.00
2022-12-25T05:01:22.780Z,5.63
2022-12-25T05:03:53.821Z,5.90
2022-12-25T05:06:24.624Z,5.43
2022-12-25T05:08:55.284Z,7.60
2022-12-25T05:11:25.933Z,6.00
2022-12-25T05:13:56.611Z,7.07
2022-12-25T05:16:27.830Z,6.10
2022-12-25T05:18:59.016Z,7.10
2022-12-25T05:21:29.728Z,7.43
2022-12-25T05:24:00.434Z,7.43
2022-12-25T05:26:31.161Z,6.23
2022-12-25T05:29:01.897Z,6.50
2022-12-25T05:31:32.588Z,4.93
2022-12-25T05:34:03.381Z,4.30
2022-12-25T05:36:34.028Z,5.30
2022-12-25T05:39:04.767Z,4.20
2022-12-25T05:41:35.405Z,7.83
2022-12-25T05:44:06.597Z,4.40
2022-12-25T05:46:37.228Z,4.67
2022-12-25T05:49:07.915Z,5.47
2022-12-25T05:51:38.612Z,6.03
2022-12-25T05:54:09.361Z,6.33
2022-12-25T05:56:40.677Z,5.63
2022-12-25T05:59:11.327Z,6.30
2022-12-25T06:01:42.203Z,6.17
2022-12-25T06:04:13.266Z,6.17
2022-12-25T06:06:44.433Z,6.13
2022-12-25T06:09:15.728Z,6.87
2022-12-25T06:11:46.476Z,5.83
2022-12-25T06:14:18.056Z,5.90
2022-12-25T06:16:50.187Z,6.47
2022-12-25T06:19:21.056Z,5.80
2022-12-25T06:21:55.225Z,8.43
2022-12-25T06:24:26.460Z,4.60
2022-12-25T06:26:57.161Z,6.03
2022-12-25T06:29:28.150Z,4.93
2022-12-25T06:31:59.251Z,5.83
2022-12-25T06:34:30.128Z,4.23
2022-12-25T06:37:00.781Z,4.63
2022-12-25T06:39:32.111Z,3.97
2022-12-25T06:42:02.952Z,4.60
2022-12-25T06:44:34.251Z,4.33
2022-12-25T06:47:04.887Z,4.27
2022-12-25T06:49:35.656Z,5.63
2022-12-25T06:52:05.347Z,12.63
2022-12-25T06:54:36.098Z,24.73
2022-12-25T06:57:06.793Z,13.50
2022-12-25T06:59:37.424Z,18.63
2022-12-25T07:02:11.415Z,21.07
2022-12-25T07:04:43.898Z,12.17
2022-12-25T07:07:15.276Z,16.17
2022-12-25T07:09:45.939Z,13.27
2022-12-25T07:12:21.400Z,13.50
2022-12-25T07:14:53.770Z,20.53
2022-12-25T07:17:25.105Z,15.00
2022-12-25T07:19:56.793Z,9.30
2022-12-25T07:22:29.271Z,6.00
2022-12-25T07:24:59.920Z,6.23
2022-12-25T07:27:31.455Z,6.53
2022-12-25T07:30:02.265Z,6.37
2022-12-25T07:32:33.879Z,6.87
2022-12-25T07:35:04.722Z,8.07
2022-12-25T07:37:35.360Z,7.93
2022-12-25T07:40:08.724Z,8.03
2022-12-25T07:42:39.325Z,7.17
2022-12-25T07:45:11.997Z,7.67
2022-12-25T07:47:42.648Z,13.00
2022-12-25T07:50:14.009Z,12.03
2022-12-25T07:52:44.730Z,13.43
2022-12-25T07:55:15.636Z,9.23
2022-12-25T07:57:46.425Z,13.40
2022-12-25T08:00:20.987Z,8.43
2022-12-25T08:02:52.775Z,8.60
2022-12-25T08:05:23.646Z,9.77
2022-12-25T08:07:57.972Z,7.07
2022-12-25T08:10:28.333Z,8.23
2022-12-25T08:12:59.766Z,10.63
2022-12-25T08:15:31.377Z,10.73
2022-12-25T08:18:02.016Z,9.03
2022-12-25T08:20:32.690Z,8.63
2022-12-25T08:25:42.088Z,11.53
2022-12-25T08:28:12.745Z,12.80
2022-12-25T08:30:43.972Z,32.83
2022-12-25T08:33:14.719Z,22.47
2022-12-25T08:35:45.346Z,28.93
2022-12-25T08:38:15.988Z,29.77
2022-12-25T08:40:46.672Z,20.37
2022-12-25T08:43:17.390Z,17.27
2022-12-25T08:45:50.308Z,18.80
2022-12-25T08:48:21.109Z,14.40
2022-12-25T08:50:53.400Z,16.27
2022-12-25T08:56:09.697Z,29.73
2022-12-25T08:58:42.701Z,35.27
2022-12-25T09:01:14.569Z,34.20
2022-12-25T09:03:45.371Z,27.57
2022-12-25T09:06:30.551Z,22.27
2022-12-25T09:09:01.343Z,15.03
2022-12-25T09:11:32.135Z,17.47
2022-12-25T09:14:02.903Z,23.10
2022-12-25T09:16:33.939Z,18.23
2022-12-25T09:19:04.674Z,15.60
2022-12-25T09:21:36.967Z,21.73
2022-12-25T09:24:08.361Z,18.87
2022-12-25T09:26:39.519Z,30.33
2022-12-25T09:29:10.183Z,28.57
2022-12-25T09:34:21.685Z,19.50
2022-12-25T09:36:52.313Z,29.77
2022-12-25T09:39:23.881Z,13.00
2022-12-25T09:41:59.765Z,12.03
2022-12-25T09:44:33.311Z,15.97
2022-12-25T09:47:06.678Z,12.50
2022-12-25T09:49:43.296Z,11.00
2022-12-25T09:52:17.277Z,14.07
2022-12-25T09:54:53.474Z,42.33
2022-12-25T09:57:27.096Z,42.97
2022-12-25T09:59:59.753Z,22.50
2022-12-25T10:02:38.814Z,27.10
2022-12-25T10:05:43.621Z,35.40
2022-12-25T10:08:17.754Z,25.47
2022-12-25T10:10:52.547Z,16.90
2022-12-25T10:13:52.594Z,16.63
2022-12-25T10:19:13.862Z,20.23
2022-12-25T10:21:45.628Z,14.60
2022-12-25T10:24:22.576Z,11.70
2022-12-25T10:26:56.495Z,15.07
2022-12-25T10:29:29.456Z,13.90
2022-12-25T10:32:00.771Z,10.87
2022-12-25T10:34:31.525Z,16.77
2022-12-25T10:37:03.043Z,17.00
2022-12-25T10:39:34.218Z,16.30
2022-12-25T10:42:32.687Z,14.77
2022-12-25T10:45:06.127Z,12.10
2022-12-25T10:47:39.686Z,10.23
2022-12-25T10:50:15.021Z,10.30
2022-12-25T10:52:55.027Z,12.97
2022-12-25T10:55:29.032Z,10.77
2022-12-25T10:57:58.781Z,10.87
2022-12-25T11:00:32.137Z,10.07
2022-12-25T11:03:03.514Z,9.77
2022-12-25T11:08:20.658Z,8.80
2022-12-25T11:10:58.101Z,8.87
2022-12-25T11:13:30.904Z,10.07
2022-12-25T11:16:09.608Z,8.77
2022-12-25T11:18:49.211Z,9.07
2022-12-25T11:21:22.574Z,6.20
2022-12-25T11:23:58.784Z,6.20
2022-12-25T11:26:32.307Z,5.40
2022-12-25T11:31:44.698Z,4.03
2022-12-25T11:34:18.617Z,4.83
2022-12-25T11:39:36.210Z,5.43
2022-12-25T11:42:11.299Z,4.37
2022-12-25T11:47:25.933Z,3.93
2022-12-25T11:50:00.889Z,3.67
2022-12-25T11:52:35.880Z,3.53
2022-12-25T11:55:11.249Z,3.40
2022-12-25T11:57:45.057Z,3.70
2022-12-25T12:00:19.032Z,3.43
2022-12-25T12:02:52.736Z,3.30
2022-12-25T12:08:04.201Z,3.57
2022-12-25T12:10:41.249Z,3.63
2022-12-25T12:16:01.567Z,3.73
2022-12-25T12:18:34.804Z,3.50
2022-12-25T12:21:09.168Z,3.77
2022-12-25T12:23:50.027Z,3.70
2022-12-25T12:26:24.249Z,3.70
2022-12-25T12:28:56.909Z,3.43
2022-12-25T12:31:29.845Z,3.47
2022-12-25T12:34:01.501Z,3.50
2022-12-25T12:36:36.852Z,3.80
2022-12-25T12:39:06.369Z,3.70
2022-12-25T12:44:29.531Z,3.60
2022-12-25T12:49:40.015Z,3.07
2022-12-25T12:52:17.393Z,3.00
2022-12-25T12:54:57.492Z,3.43
2022-12-25T12:57:31.805Z,3.60
2022-12-25T13:00:10.385Z,2.57
2022-12-25T13:03:08.099Z,3.10
2022-12-25T13:05:43.047Z,2.90
2022-12-25T13:08:25.501Z,3.30
2022-12-25T13:11:05.985Z,3.10
2022-12-25T13:13:40.151Z,2.80
2022-12-25T13:16:16.913Z,2.83
2022-12-25T13:18:48.385Z,2.93
2022-12-25T13:21:23.580Z,2.63
2022-12-25T13:24:01.183Z,2.57
2022-12-25T13:26:32.437Z,2.80
2022-12-25T13:29:09.485Z,2.80
2022-12-25T13:31:36.869Z,2.40
2022-12-25T13:34:10.121Z,2.87
2022-12-25T13:36:42.066Z,2.70
2022-12-25T13:39:16.688Z,2.13
2022-12-25T13:42:10.256Z,2.60
2022-12-25T13:44:47.797Z,2.73
2022-12-25T13:47:25.852Z,2.80
2022-12-25T13:52:39.702Z,2.83
2022-12-25T13:55:18.832Z,2.53
2022-12-25T13:57:53.072Z,2.50
2022-12-25T14:00:28.172Z,2.87
2022-12-25T14:02:59.669Z,2.97
2022-12-25T14:05:39.712Z,2.40
2022-12-25T14:08:08.435Z,2.37
2022-12-25T14:10:41.906Z,2.83
2022-12-25T14:13:16.538Z,2.40
2022-12-25T14:15:49.242Z,2.60
2022-12-25T14:18:22.334Z,2.37
2022-12-25T14:21:03.255Z,2.43
2022-12-25T14:23:37.625Z,2.90
2022-12-25T14:26:08.814Z,2.43
2022-12-25T14:28:39.999Z,2.57
2022-12-25T14:31:14.022Z,2.53
2022-12-25T14:36:23.030Z,2.20
2022-12-25T14:39:01.148Z,2.50
2022-12-25T14:41:34.753Z,2.67
2022-12-25T14:44:07.719Z,2.50
2022-12-25T14:46:38.604Z,2.53
2022-12-25T14:49:21.700Z,2.33
2022-12-25T14:51:54.029Z,2.87
2022-12-25T14:54:27.198Z,2.83
2022-12-25T14:56:58.237Z,2.60
2022-12-25T14:59:29.541Z,2.70
2022-12-25T15:02:02.083Z,2.90
2022-12-25T15:04:33.488Z,3.00
2022-12-25T15:07:07.584Z,2.60
2022-12-25T15:12:17.960Z,2.70
2022-12-25T15:14:48.545Z,2.60
2022-12-25T15:17:26.700Z,2.63
2022-12-25T15:20:00.790Z,3.00
2022-12-25T15:22:54.283Z,2.93
2022-12-25T15:25:03.917Z,2.80
2022-12-25T15:27:36.227Z,2.90
2022-12-25T15:30:13.484Z,2.87
2022-12-25T15:32:41.145Z,2.40
2022-12-25T15:35:16.792Z,3.10
2022-12-25T15:37:48.185Z,2.80
2022-12-25T15:40:21.635Z,2.70
2022-12-25T15:42:56.352Z,2.70
2022-12-25T15:45:27.772Z,2.70
2022-12-25T15:47:58.739Z,2.60
2022-12-25T15:50:30.635Z,2.53
2022-12-25T15:53:01.484Z,2.80
2022-12-25T15:55:32.536Z,2.43
2022-12-25T15:58:03.258Z,2.60
2022-12-25T16:00:34.317Z,2.73
2022-12-25T16:03:05.218Z,2.70
2022-12-25T16:05:36.706Z,2.70
2022-12-25T16:08:07.900Z,2.53
2022-12-25T16:10:40.394Z,2.87
2022-12-25T16:13:11.010Z,3.87
2022-12-25T16:15:42.099Z,3.80
2022-12-25T16:18:13.561Z,2.97
2022-12-25T16:23:22.832Z,2.73
2022-12-25T16:25:54.118Z,3.67
2022-12-25T16:28:24.981Z,3.70
2022-12-25T16:30:55.960Z,3.33
2022-12-25T16:33:28.255Z,2.97
2022-12-25T16:35:59.795Z,3.80
2022-12-25T16:38:32.853Z,3.30
2022-12-25T16:41:04.168Z,3.10
2022-12-25T16:46:16.147Z,3.50
2022-12-25T16:48:47.385Z,3.10
2022-12-25T16:51:20.462Z,3.57
2022-12-25T16:53:53.089Z,3.30
2022-12-25T16:56:25.670Z,3.70
2022-12-25T16:58:58.504Z,3.50
2022-12-25T17:01:29.342Z,3.33
2022-12-25T17:04:02.448Z,3.20
2022-12-25T17:06:34.697Z,3.93
2022-12-25T17:09:06.037Z,3.47
2022-12-25T17:11:37.146Z,3.33
2022-12-25T17:14:08.197Z,3.47
2022-12-25T17:16:40.682Z,3.50
2022-12-25T17:19:16.407Z,3.60
2022-12-25T17:21:47.634Z,3.53
2022-12-25T17:24:18.690Z,3.77
2022-12-25T17:26:50.110Z,3.73
2022-12-25T17:29:22.641Z,4.57
2022-12-25T17:31:53.607Z,3.77
2022-12-25T17:34:24.265Z,3.80
2022-12-25T17:36:55.555Z,3.53
2022-12-25T17:39:26.445Z,3.90
2022-12-25T17:41:57.213Z,4.37
2022-12-25T17:44:28.490Z,4.07
2022-12-25T17:46:59.273Z,3.80
2022-12-25T17:52:08.243Z,4.20
2022-12-25T17:54:40.990Z,4.10
2022-12-25T17:57:11.719Z,4.30
2022-12-25T17:59:42.434Z,3.97
2022-12-25T18:02:13.659Z,3.93
2022-12-25T18:04:44.596Z,3.67
2022-12-25T18:07:16.072Z,4.30
2022-12-25T18:09:47.030Z,4.20
2022-12-25T18:12:17.946Z,3.90
2022-12-25T18:14:48.931Z,3.77
2022-12-25T18:17:20.066Z,3.70
2022-12-25T18:19:52.657Z,3.83
2022-12-25T18:22:23.588Z,4.27
2022-12-25T18:24:54.371Z,3.90
2022-12-25T18:27:25.370Z,4.67
2022-12-25T18:29:56.119Z,4.40
2022-12-25T18:32:28.283Z,4.30
2022-12-25T18:34:59.431Z,4.50
2022-12-25T18:37:33.148Z,4.93
2022-12-25T18:40:02.745Z,4.50
2022-12-25T18:42:43.534Z,4.77
2022-12-25T18:45:16.137Z,4.47
2022-12-25T18:47:47.630Z,4.57
2022-12-25T18:50:18.768Z,4.33
2022-12-25T18:52:51.706Z,4.40
2022-12-25T18:55:22.186Z,4.13
2022-12-25T18:57:52.962Z,4.57
2022-12-25T19:00:24.101Z,4.33
2022-12-25T19:02:59.385Z,4.10
2022-12-25T19:05:30.390Z,4.10
2022-12-25T19:08:01.175Z,5.83
2022-12-25T19:10:32.008Z,4.63
2022-12-25T19:13:02.812Z,4.10
2022-12-25T19:15:33.656Z,4.00
2022-12-25T19:18:04.363Z,4.03
2022-12-25T19:20:35.057Z,4.00
2022-12-25T19:23:05.759Z,4.33
2022-12-25T19:25:36.798Z,3.93
2022-12-25T19:28:07.980Z,5.10
2022-12-25T19:30:40.243Z,6.13
2022-12-25T19:33:15.726Z,5.43
2022-12-25T19:35:43.774Z,5.17
2022-12-25T19:38:15.067Z,5.23
2022-12-25T19:40:48.544Z,4.63
2022-12-25T19:43:19.216Z,4.67
2022-12-25T19:45:50.387Z,4.83
2022-12-25T19:48:21.588Z,4.63
2022-12-25T19:50:53.175Z,5.67
2022-12-25T19:53:24.326Z,4.97
2022-12-25T19:55:56.182Z,4.93
2022-12-25T19:58:27.008Z,4.20
2022-12-25T20:01:03.183Z,4.70
2022-12-25T20:03:37.548Z,5.10
2022-12-25T20:06:09.379Z,4.60
2022-12-25T20:08:40.162Z,4.53
2022-12-25T20:11:11.046Z,4.40
2022-12-25T20:13:41.939Z,3.97
2022-12-25T20:16:12.911Z,4.10
2022-12-25T20:18:43.831Z,3.83
2022-12-25T20:21:16.939Z,4.23
2022-12-25T20:23:49.765Z,3.70
2022-12-25T20:26:23.065Z,4.37
2022-12-25T20:28:54.408Z,4.70
2022-12-25T20:31:28.617Z,5.70
2022-12-25T20:34:00.959Z,5.70
2022-12-25T20:36:37.155Z,5.10
2022-12-25T20:39:05.851Z,5.00
2022-12-25T20:41:37.513Z,4.57
2022-12-25T20:44:10.314Z,4.63
2022-12-25T20:46:42.108Z,4.27
2022-12-25T20:49:13.310Z,4.70
2022-12-25T20:51:44.389Z,4.93
2022-12-25T20:54:16.586Z,4.30
2022-12-25T20:56:47.465Z,4.77
2022-12-25T20:59:18.647Z,4.83
2022-12-25T21:01:49.919Z,5.10
2022-12-25T21:04:21.422Z,4.90
2022-12-25T21:06:52.277Z,5.53
2022-12-25T21:09:23.082Z,4.67
2022-12-25T21:11:53.942Z,4.73
2022-12-25T21:17:02.953Z,4.70
2022-12-25T21:19:33.808Z,4.50
2022-12-25T21:22:04.541Z,4.90
2022-12-25T21:24:35.326Z,4.40
2022-12-25T21:27:06.193Z,4.27
2022-12-25T21:29:36.795Z,5.63
2022-12-25T21:32:25.386Z,4.93
2022-12-25T21:34:56.052Z,4.93
2022-12-25T21:37:26.660Z,4.87
2022-12-25T21:39:57.393Z,4.47
2022-12-25T21:42:27.945Z,5.10
2022-12-25T21:44:58.706Z,5.73
2022-12-25T21:48:00.251Z,4.97
2022-12-25T21:50:19.115Z,5.10
2022-12-25T21:53:09.022Z,5.20
2022-12-25T21:55:39.658Z,5.23
2022-12-25T21:58:10.531Z,6.30
2022-12-25T22:00:41.286Z,6.63
2022-12-25T22:03:12.028Z,6.57
2022-12-25T22:06:00.077Z,6.30
2022-12-25T22:08:32.674Z,6.03
2022-12-25T22:11:08.626Z,5.60
2022-12-25T22:13:57.299Z,4.53
2022-12-25T22:16:45.425Z,5.17
2022-12-25T22:19:33.594Z,5.53
2022-12-25T22:22:04.310Z,5.37
2022-12-25T22:24:35.187Z,5.00
2022-12-25T22:27:05.857Z,5.83
2022-12-25T22:29:37.654Z,5.07
2022-12-25T22:32:12.292Z,5.30
2022-12-25T22:34:43.110Z,5.90
2022-12-25T22:37:17.329Z,5.87
2022-12-25T22:39:48.395Z,5.30
2022-12-25T22:42:19.272Z,6.93
2022-12-25T22:44:51.569Z,5.73
2022-12-25T22:47:22.345Z,6.73
2022-12-25T22:49:53.367Z,5.00
2022-12-25T22:52:24.322Z,5.37
2022-12-25T22:54:55.210Z,8.10
2022-12-25T22:57:25.961Z,7.40
2022-12-25T22:59:56.737Z,7.97
2022-12-25T23:02:27.841Z,7.27
2022-12-25T23:04:58.797Z,6.93
2022-12-25T23:07:29.439Z,6.57
2022-12-25T23:10:00.670Z,6.40
2022-12-25T23:12:49.013Z,6.00
2022-12-25T23:15:20.130Z,6.07
2022-12-25T23:18:21.587Z,5.70
2022-12-25T23:21:10.040Z,5.70
2022-12-25T23:23:58.115Z,6.13
2022-12-25T23:26:28.840Z,5.93
2022-12-25T23:29:17.041Z,7.00
2022-12-25T23:31:50.170Z,5.93
2022-12-25T23:34:21.315Z,5.97
2022-12-25T23:36:51.973Z,6.30
2022-12-25T23:39:22.741Z,5.93
2022-12-25T23:41:53.426Z,5.73
2022-12-25T23:44:24.684Z,6.00
2022-12-25T23:46:55.363Z,6.83
2022-12-25T23:49:27.322Z,5.50
2022-12-25T23:51:58.196Z,5.77
2022-12-25T23:54:31.344Z,4.93
2022-12-25T23:57:02.507Z,5.47
2022-12-25T23:59:33.833Z,6.37
